createdAt,value
2023-05-08T00:01:36.206Z,101925.88
2023-05-08T00:04:03.613Z,101920.59
2023-05-08T00:06:31.305Z,101925.78
2023-05-08T00:08:58.397Z,101920.56
2023-05-08T00:11:26.582Z,101918.75
2023-05-08T00:13:54.691Z,101922.28
2023-05-08T00:16:21.744Z,101919.63
2023-05-08T00:18:49.138Z,101913.56
2023-05-08T00:21:16.358Z,101908.22
2023-05-08T00:23:44.097Z,101917.78
2023-05-08T00:26:11.273Z,101915.19
2023-05-08T00:28:38.623Z,101914.28
2023-05-08T00:31:08.488Z,101913.38
2023-05-08T00:33:35.780Z,101913.44
2023-05-08T00:36:04.805Z,101902.09
2023-05-08T00:38:36.758Z,101906.53
2023-05-08T00:41:04.586Z,101898.31
2023-05-08T00:43:31.740Z,101899.28
2023-05-08T00:46:01.612Z,101894.91
2023-05-08T00:48:34.480Z,101894.81
2023-05-08T00:51:04.887Z,101892.31
2023-05-08T00:53:36.336Z,101896.75
2023-05-08T00:56:05.306Z,101891.47
2023-05-08T00:58:33.789Z,101901.81
2023-05-08T01:01:01.935Z,101890.50
2023-05-08T01:03:29.374Z,101891.38
2023-05-08T01:05:56.820Z,101890.53
2023-05-08T01:08:24.113Z,101884.97
2023-05-08T01:11:18.647Z,101886.69
2023-05-08T01:14:16.704Z,101881.47
2023-05-08T01:17:09.647Z,101882.50
2023-05-08T01:20:11.114Z,101882.50
2023-05-08T01:22:50.742Z,101883.31
2023-05-08T01:25:56.129Z,101880.75
2023-05-08T01:28:32.520Z,101884.19
2023-05-08T01:31:22.098Z,101888.66
2023-05-08T01:34:23.214Z,101885.91
2023-05-08T01:37:21.385Z,101895.63
2023-05-08T01:40:03.617Z,101895.63
2023-05-08T01:42:59.412Z,101892.16
2023-05-08T01:45:39.591Z,101892.19
2023-05-08T01:48:11.193Z,101891.31
2023-05-08T01:53:29.424Z,101890.34
2023-05-08T01:56:01.173Z,101888.56
2023-05-08T01:58:31.151Z,101892.16
2023-05-08T02:01:03.269Z,101892.88
2023-05-08T02:03:34.042Z,101889.44
2023-05-08T02:06:03.331Z,101894.78
2023-05-08T02:08:33.698Z,101896.47
2023-05-08T02:11:02.218Z,101891.09
2023-05-08T02:13:32.305Z,101887.47
2023-05-08T02:16:02.652Z,101893.63
2023-05-08T02:18:32.363Z,101889.44
2023-05-08T02:21:05.298Z,101884.09
2023-05-08T02:23:35.848Z,101883.31
2023-05-08T02:26:04.801Z,101877.19
2023-05-08T02:28:33.621Z,101884.13
2023-05-08T02:31:01.931Z,101893.84
2023-05-08T02:33:33.579Z,101895.63
2023-05-08T02:36:02.806Z,101897.41
2023-05-08T02:38:32.259Z,101892.97
2023-05-08T02:41:05.761Z,101896.53
2023-05-08T02:43:32.884Z,101899.91
2023-05-08T02:46:37.914Z,101900.72
2023-05-08T02:49:20.567Z,101891.97
2023-05-08T02:52:05.380Z,101894.72
2023-05-08T02:55:05.543Z,101894.69
2023-05-08T02:57:44.273Z,101885.88
2023-05-08T03:03:27.597Z,101881.47
2023-05-08T03:06:00.091Z,101884.97
2023-05-08T03:08:34.584Z,101884.13
2023-05-08T03:11:08.394Z,101878.84
2023-05-08T03:13:37.167Z,101871.03
2023-05-08T03:16:07.098Z,101873.59
2023-05-08T03:19:00.306Z,101873.47
2023-05-08T03:21:30.918Z,101873.59
2023-05-08T03:24:02.409Z,101878.84
2023-05-08T03:26:30.165Z,101877.16
2023-05-08T03:28:59.280Z,101881.53
2023-05-08T03:31:33.498Z,101888.56
2023-05-08T03:34:05.540Z,101887.69
2023-05-08T03:36:32.904Z,101891.13
2023-05-08T03:39:01.319Z,101886.72
2023-05-08T03:41:28.728Z,101888.47
2023-05-08T03:43:57.394Z,101891.09
2023-05-08T03:46:26.046Z,101889.34
2023-05-08T03:48:54.754Z,101885.06
2023-05-08T03:51:22.956Z,101880.47
2023-05-08T03:53:51.326Z,101877.84
2023-05-08T03:56:19.084Z,101881.44
2023-05-08T03:58:53.302Z,101878.56
2023-05-08T04:01:28.872Z,101871.72
2023-05-08T04:04:30.549Z,101870.94
2023-05-08T04:07:08.621Z,101878.69
2023-05-08T04:10:07.050Z,101884.88
2023-05-08T04:13:06.838Z,101877.75
2023-05-08T04:15:44.075Z,101870.69
2023-05-08T04:18:16.656Z,101875.16
2023-05-08T04:20:48.214Z,101877.78
2023-05-08T04:23:20.028Z,101872.47
2023-05-08T04:25:49.822Z,101871.59
2023-05-08T04:28:18.922Z,101869.81
2023-05-08T04:30:47.119Z,101866.28
2023-05-08T04:33:15.289Z,101871.56
2023-05-08T04:35:42.622Z,101875.94
2023-05-08T04:38:09.820Z,101877.78
2023-05-08T04:40:37.236Z,101878.59
2023-05-08T04:43:04.555Z,101887.34
2023-05-08T04:45:31.855Z,101889.91
2023-05-08T04:47:59.156Z,101895.19
2023-05-08T04:50:26.327Z,101892.66
2023-05-08T04:52:53.383Z,101895.28
2023-05-08T04:55:23.345Z,101900.53
2023-05-08T04:57:50.438Z,101896.13
2023-05-08T05:00:18.188Z,101897.03
2023-05-08T05:02:47.738Z,101889.03
2023-05-08T05:05:15.247Z,101904.00
2023-05-08T05:07:42.804Z,101903.16
2023-05-08T05:10:11.390Z,101897.72
2023-05-08T05:12:39.110Z,101906.63
2023-05-08T05:15:09.120Z,101906.50
2023-05-08T05:17:37.996Z,101899.63
2023-05-08T05:20:07.836Z,101905.69
2023-05-08T05:22:34.993Z,101904.00
2023-05-08T05:25:02.150Z,101914.56
2023-05-08T05:27:29.566Z,101916.38
2023-05-08T05:29:58.804Z,101923.41
2023-05-08T05:32:30.567Z,101924.22
2023-05-08T05:34:57.988Z,101928.59
2023-05-08T05:37:27.529Z,101923.34
2023-05-08T05:39:55.176Z,101931.22
2023-05-08T05:42:28.774Z,101935.63
2023-05-08T05:44:57.119Z,101938.31
2023-05-08T05:47:24.202Z,101941.72
2023-05-08T05:49:52.186Z,101940.75
2023-05-08T05:52:19.457Z,101937.25
2023-05-08T05:54:46.911Z,101944.34
2023-05-08T05:57:14.358Z,101945.25
2023-05-08T05:59:42.193Z,101939.13
2023-05-08T06:02:10.666Z,101943.63
2023-05-08T06:04:40.996Z,101939.34
2023-05-08T06:07:08.664Z,101938.50
2023-05-08T06:09:36.899Z,101940.25
2023-05-08T06:12:04.228Z,101928.91
2023-05-08T06:14:31.389Z,101934.22
2023-05-08T06:16:58.873Z,101933.34
2023-05-08T06:19:26.462Z,101929.84
2023-05-08T06:21:53.882Z,101932.56
2023-05-08T06:24:21.117Z,101931.75
2023-05-08T06:26:48.208Z,101926.50
2023-05-08T06:29:15.589Z,101924.72
2023-05-08T06:31:43.147Z,101922.25
2023-05-08T06:34:20.662Z,101920.56
2023-05-08T06:36:48.060Z,101916.28
2023-05-08T06:39:17.614Z,101920.50
2023-05-08T06:41:51.854Z,101912.63
2023-05-08T06:44:28.469Z,101908.31
2023-05-08T06:46:55.858Z,101903.13
2023-05-08T06:49:23.227Z,101898.75
2023-05-08T06:51:50.491Z,101903.13
2023-05-08T06:54:18.122Z,101907.50
2023-05-08T06:56:46.284Z,101897.91
2023-05-08T06:59:13.449Z,101904.06
2023-05-08T07:01:41.935Z,101899.72
2023-05-08T07:04:09.116Z,101907.63
2023-05-08T07:06:36.336Z,101912.91
2023-05-08T07:09:03.756Z,101913.84
2023-05-08T07:11:30.852Z,101914.72
2023-05-08T07:13:58.027Z,101906.81
2023-05-08T07:16:25.415Z,101915.47
2023-05-08T07:18:52.564Z,101915.53
2023-05-08T07:21:21.412Z,101911.16
2023-05-08T07:23:51.836Z,101908.44
2023-05-08T07:26:19.025Z,101908.47
2023-05-08T07:28:46.134Z,101911.09
2023-05-08T07:31:16.780Z,101912.91
2023-05-08T07:33:43.999Z,101919.06
2023-05-08T07:36:11.403Z,101911.22
2023-05-08T07:38:38.730Z,101914.66
2023-05-08T07:41:05.861Z,101914.66
2023-05-08T07:43:37.466Z,101919.97
2023-05-08T07:46:05.590Z,101911.19
2023-05-08T07:48:32.700Z,101906.91
2023-05-08T07:51:00.308Z,101917.44
2023-05-08T07:53:27.806Z,101915.69
2023-05-08T07:55:54.966Z,101926.34
2023-05-08T07:58:23.669Z,101920.22
2023-05-08T08:00:51.529Z,101919.34
2023-05-08T08:03:18.789Z,101928.16
2023-05-08T08:05:48.474Z,101922.00
2023-05-08T08:08:15.844Z,101917.63
2023-05-08T08:10:52.137Z,101909.75
2023-05-08T08:13:19.318Z,101904.44
2023-05-08T08:15:49.609Z,101912.28
2023-05-08T08:18:18.055Z,101898.13
2023-05-08T08:20:45.312Z,101908.66
2023-05-08T08:23:13.465Z,101907.63
2023-05-08T08:25:40.748Z,101899.66
2023-05-08T08:28:08.067Z,101896.81
2023-05-08T08:30:36.352Z,101895.88
2023-05-08T08:33:05.401Z,101894.84
2023-05-08T08:35:33.855Z,101904.31
2023-05-08T08:38:01.415Z,101909.75
2023-05-08T08:40:34.058Z,101906.69
2023-05-08T08:43:01.240Z,101914.97
2023-05-08T08:45:28.295Z,101907.59
2023-05-08T08:47:58.814Z,101914.94
2023-05-08T08:50:27.438Z,101916.75
2023-05-08T08:53:21.769Z,101921.22
2023-05-08T08:55:52.807Z,101915.66
2023-05-08T08:58:48.529Z,101931.78
2023-05-08T09:01:19.548Z,101917.41
2023-05-08T09:03:50.091Z,101923.84
2023-05-08T09:06:20.642Z,101918.88
2023-05-08T09:08:47.816Z,101921.66
2023-05-08T09:11:15.116Z,101916.88
2023-05-08T09:13:42.403Z,101914.81
2023-05-08T09:16:09.631Z,101913.16
2023-05-08T09:18:39.283Z,101914.78
2023-05-08T09:21:07.265Z,101908.72
2023-05-08T09:23:47.358Z,101907.47
2023-05-08T09:26:33.057Z,101915.44
2023-05-08T09:29:20.351Z,101912.34
2023-05-08T09:31:53.902Z,101920.97
2023-05-08T09:34:33.822Z,101927.94
2023-05-08T09:37:10.396Z,101931.44
2023-05-08T09:39:39.991Z,101930.50
2023-05-08T09:42:07.685Z,101930.72
2023-05-08T09:44:49.959Z,101924.66
2023-05-08T09:47:22.276Z,101929.31
2023-05-08T09:50:01.062Z,101930.63
2023-05-08T09:52:32.957Z,101927.13
2023-05-08T09:55:02.604Z,101932.63
2023-05-08T09:57:34.405Z,101930.94
2023-05-08T10:00:08.236Z,101929.00
2023-05-08T10:02:39.183Z,101921.63
2023-05-08T10:05:30.326Z,101922.38
2023-05-08T10:08:01.613Z,101927.00
2023-05-08T10:10:33.551Z,101922.56
2023-05-08T10:13:00.873Z,101927.41
2023-05-08T10:15:31.785Z,101933.44
2023-05-08T10:18:07.176Z,101924.50
2023-05-08T10:20:40.777Z,101931.41
2023-05-08T10:23:16.038Z,101938.97
2023-05-08T10:25:46.459Z,101927.06
2023-05-08T10:28:43.017Z,101931.13
2023-05-08T10:31:14.817Z,101931.03
2023-05-08T10:33:48.976Z,101929.63
2023-05-08T10:36:17.071Z,101920.19
2023-05-08T10:38:48.356Z,101922.59
2023-05-08T10:41:16.080Z,101923.19
2023-05-08T10:43:43.725Z,101921.63
2023-05-08T10:46:49.661Z,101908.38
2023-05-08T10:49:20.381Z,101912.31
2023-05-08T10:51:53.490Z,101906.06
2023-05-08T10:54:59.323Z,101905.13
2023-05-08T10:57:29.802Z,101895.09
2023-05-08T11:00:00.416Z,101899.84
2023-05-08T11:02:35.123Z,101879.09
2023-05-08T11:05:18.985Z,101882.25
2023-05-08T11:08:14.778Z,101879.13
2023-05-08T11:10:42.984Z,101873.59
2023-05-08T11:13:12.535Z,101890.31
2023-05-08T11:15:42.192Z,101886.00
2023-05-08T11:18:11.784Z,101888.19
2023-05-08T11:20:41.280Z,101889.00
2023-05-08T11:23:42.754Z,101878.66
2023-05-08T11:26:15.041Z,101882.81
2023-05-08T11:28:54.712Z,101868.19
2023-05-08T11:31:21.908Z,101863.03
2023-05-08T11:33:49.723Z,101859.97
2023-05-08T11:36:23.385Z,101858.31
2023-05-08T11:39:12.873Z,101869.75
2023-05-08T11:41:40.220Z,101868.22
2023-05-08T11:44:20.771Z,101865.03
2023-05-08T11:46:56.345Z,101866.00
2023-05-08T11:49:29.562Z,101876.22
2023-05-08T11:51:58.377Z,101866.81
2023-05-08T11:54:29.500Z,101856.28
2023-05-08T11:57:00.604Z,101864.06
2023-05-08T11:59:37.881Z,101873.16
2023-05-08T12:02:09.436Z,101864.16
2023-05-08T12:04:46.111Z,101862.00
2023-05-08T12:07:16.743Z,101849.00
2023-05-08T12:09:44.208Z,101849.44
2023-05-08T12:12:16.035Z,101845.66
2023-05-08T12:14:58.735Z,101828.75
2023-05-08T12:17:26.021Z,101822.47
2023-05-08T12:19:56.902Z,101835.19
2023-05-08T12:22:28.156Z,101834.03
2023-05-08T12:24:58.900Z,101835.72
2023-05-08T12:27:29.600Z,101827.84
2023-05-08T12:29:58.095Z,101827.97
2023-05-08T12:32:26.650Z,101837.91
2023-05-08T12:34:56.046Z,101839.16
2023-05-08T12:37:29.745Z,101840.75
2023-05-08T12:39:57.887Z,101837.13
2023-05-08T12:42:42.936Z,101835.81
2023-05-08T12:45:28.342Z,101827.91
2023-05-08T12:48:04.407Z,101834.44
2023-05-08T12:50:39.009Z,101838.56
2023-05-08T12:53:11.340Z,101848.84
2023-05-08T12:55:41.595Z,101836.84
2023-05-08T12:58:15.031Z,101832.75
2023-05-08T13:00:47.589Z,101835.97
2023-05-08T13:03:24.176Z,101842.88
2023-05-08T13:05:53.087Z,101850.69
2023-05-08T13:08:30.399Z,101843.53
2023-05-08T13:10:57.648Z,101839.38
2023-05-08T13:13:28.372Z,101838.88
2023-05-08T13:15:56.294Z,101837.28
2023-05-08T13:18:28.059Z,101845.13
2023-05-08T13:20:56.526Z,101842.22
2023-05-08T13:23:24.700Z,101835.03
2023-05-08T13:25:54.204Z,101827.13
2023-05-08T13:28:26.677Z,101820.84
2023-05-08T13:30:53.822Z,101814.75
2023-05-08T13:33:21.023Z,101819.34
2023-05-08T13:35:51.252Z,101814.13
2023-05-08T13:38:24.425Z,101807.69
2023-05-08T13:40:54.729Z,101807.34
2023-05-08T13:43:23.270Z,101802.69
2023-05-08T13:45:54.277Z,101804.13
2023-05-08T13:48:21.668Z,101798.13
2023-05-08T13:51:02.929Z,101786.84
2023-05-08T13:53:37.050Z,101791.28
2023-05-08T13:56:04.407Z,101784.94
2023-05-08T13:58:34.706Z,101788.34
2023-05-08T14:01:25.081Z,101794.44
2023-05-08T14:03:58.500Z,101794.16
2023-05-08T14:06:31.056Z,101792.25
2023-05-08T14:08:58.587Z,101789.72
2023-05-08T14:14:32.221Z,101772.41
2023-05-08T14:17:08.352Z,101779.41
2023-05-08T14:19:42.970Z,101777.03
2023-05-08T14:22:10.388Z,101785.22
2023-05-08T14:24:38.346Z,101775.88
2023-05-08T14:27:06.422Z,101778.25
2023-05-08T14:29:34.418Z,101777.25
2023-05-08T14:32:01.960Z,101769.13
2023-05-08T14:34:29.215Z,101773.53
2023-05-08T14:36:56.643Z,101777.03
2023-05-08T14:39:23.771Z,101777.03
2023-05-08T14:42:14.264Z,101783.88
2023-05-08T14:44:38.454Z,101781.00
2023-05-08T14:47:10.458Z,101778.31
2023-05-08T14:49:38.950Z,101772.84
2023-05-08T14:52:07.575Z,101777.81
2023-05-08T14:54:34.917Z,101778.63
2023-05-08T14:57:02.405Z,101771.63
2023-05-08T14:59:32.379Z,101769.13
2023-05-08T15:01:59.922Z,101779.50
2023-05-08T15:04:27.396Z,101769.34
2023-05-08T15:06:55.478Z,101777.06
2023-05-08T15:09:25.858Z,101775.59
2023-05-08T15:11:53.233Z,101781.06
2023-05-08T15:14:20.325Z,101783.66
2023-05-08T15:16:47.486Z,101794.25
2023-05-08T15:19:14.880Z,101794.31
2023-05-08T15:21:42.057Z,101787.91
2023-05-08T15:24:09.556Z,101779.63
2023-05-08T15:26:36.829Z,101783.22
2023-05-08T15:29:03.956Z,101783.03
2023-05-08T15:31:31.550Z,101785.78
2023-05-08T15:33:59.178Z,101787.06
2023-05-08T15:36:28.541Z,101789.50
2023-05-08T15:38:55.948Z,101796.91
2023-05-08T15:41:23.158Z,101806.25
2023-05-08T15:43:50.208Z,101806.63
2023-05-08T15:46:17.657Z,101797.97
2023-05-08T15:48:44.812Z,101802.28
2023-05-08T15:51:13.338Z,101805.84
2023-05-08T15:53:41.833Z,101797.00
2023-05-08T15:56:10.985Z,101806.03
2023-05-08T15:58:39.234Z,101817.38
2023-05-08T16:01:06.552Z,101797.16
2023-05-08T16:03:34.306Z,101792.53
2023-05-08T16:06:01.753Z,101796.66
2023-05-08T16:08:31.133Z,101793.56
2023-05-08T16:10:58.281Z,101797.81
2023-05-08T16:13:25.646Z,101809.25
2023-05-08T16:15:52.905Z,101807.94
2023-05-08T16:18:23.432Z,101808.53
2023-05-08T16:20:50.714Z,101810.41
2023-05-08T16:23:17.711Z,101828.34
2023-05-08T16:25:44.758Z,101824.03
2023-05-08T16:28:14.264Z,101823.06
2023-05-08T16:30:44.597Z,101834.75
2023-05-08T16:33:12.945Z,101828.53
2023-05-08T16:35:43.301Z,101830.34
2023-05-08T16:38:10.657Z,101833.97
2023-05-08T16:40:38.025Z,101834.75
2023-05-08T16:43:05.323Z,101839.16
2023-05-08T16:45:34.663Z,101830.34
2023-05-08T16:48:05.161Z,101833.03
2023-05-08T16:50:32.474Z,101833.84
2023-05-08T16:52:59.761Z,101828.63
2023-05-08T16:55:27.517Z,101818.91
2023-05-08T16:57:54.777Z,101829.47
2023-05-08T17:00:23.021Z,101833.88
2023-05-08T17:02:50.653Z,101827.69
2023-05-08T17:05:18.387Z,101828.47
2023-05-08T17:07:45.829Z,101831.19
2023-05-08T17:10:15.430Z,101830.31
2023-05-08T17:12:42.534Z,101836.50
2023-05-08T17:15:10.022Z,101841.00
2023-05-08T17:17:37.339Z,101838.28
2023-05-08T17:20:13.505Z,101835.69
2023-05-08T17:22:43.948Z,101834.78
2023-05-08T17:25:11.355Z,101818.91
2023-05-08T17:27:39.242Z,101828.56
2023-05-08T17:30:08.685Z,101829.50
2023-05-08T17:32:36.468Z,101828.56
2023-05-08T17:35:04.245Z,101830.34
2023-05-08T17:37:33.180Z,101831.22
2023-05-08T17:40:06.524Z,101823.28
2023-05-08T17:42:34.157Z,101825.06
2023-05-08T17:45:05.096Z,101825.91
2023-05-08T17:47:32.708Z,101822.34
2023-05-08T17:49:59.881Z,101823.97
2023-05-08T17:52:27.108Z,101828.25
2023-05-08T17:54:54.571Z,101822.16
2023-05-08T17:57:25.094Z,101819.41
2023-05-08T17:59:52.513Z,101817.63
2023-05-08T18:02:19.759Z,101825.47
2023-05-08T18:04:47.096Z,101829.06
2023-05-08T18:07:14.310Z,101831.75
2023-05-08T18:09:41.587Z,101831.78
2023-05-08T18:12:08.804Z,101834.44
2023-05-08T18:14:36.312Z,101833.63
2023-05-08T18:17:03.726Z,101831.00
2023-05-08T18:19:32.137Z,101832.81
2023-05-08T18:21:59.296Z,101840.81
2023-05-08T18:24:29.588Z,101843.50
2023-05-08T18:26:58.102Z,101847.09
2023-05-08T18:29:28.607Z,101847.97
2023-05-08T18:31:57.389Z,101849.72
2023-05-08T18:34:25.012Z,101849.78
2023-05-08T18:36:57.514Z,101848.06
2023-05-08T18:39:25.760Z,101857.78
2023-05-08T18:42:03.955Z,101863.88
2023-05-08T18:44:31.280Z,101868.28
2023-05-08T18:47:01.000Z,101878.91
2023-05-08T18:49:28.441Z,101884.19
2023-05-08T18:51:55.691Z,101885.09
2023-05-08T18:54:27.016Z,101891.22
2023-05-08T18:56:58.288Z,101894.75
2023-05-08T18:59:26.098Z,101891.25
2023-05-08T19:01:53.298Z,101898.28
2023-05-08T19:04:20.752Z,101884.19
2023-05-08T19:06:49.235Z,101890.34
2023-05-08T19:09:16.660Z,101888.59
2023-05-08T19:11:56.548Z,101884.19
2023-05-08T19:14:31.092Z,101878.03
2023-05-08T19:16:58.734Z,101873.66
2023-05-08T19:19:26.272Z,101878.91
2023-05-08T19:22:00.332Z,101879.81
2023-05-08T19:24:36.545Z,101885.06
2023-05-08T19:27:05.004Z,101876.31
2023-05-08T19:29:34.790Z,101883.31
2023-05-08T19:32:14.630Z,101889.47
2023-05-08T19:34:47.418Z,101895.66
2023-05-08T19:37:15.441Z,101904.47
2023-05-08T19:39:43.081Z,101903.56
2023-05-08T19:42:14.376Z,101906.25
2023-05-08T19:44:45.424Z,101910.63
2023-05-08T19:47:15.221Z,101922.94
2023-05-08T19:49:42.752Z,101920.31
2023-05-08T19:52:10.150Z,101921.19
2023-05-08T19:54:37.329Z,101916.78
2023-05-08T19:57:07.779Z,101915.91
2023-05-08T19:59:35.237Z,101915.91
2023-05-08T20:02:02.531Z,101916.78
2023-05-08T20:04:36.059Z,101916.78
2023-05-08T20:07:16.202Z,101917.66
2023-05-08T20:09:43.401Z,101922.09
2023-05-08T20:12:10.808Z,101930.88
2023-05-08T20:14:38.116Z,101934.41
2023-05-08T20:17:05.498Z,101937.94
2023-05-08T20:19:32.746Z,101940.53
2023-05-08T20:22:00.190Z,101939.66
2023-05-08T20:24:29.991Z,101941.44
2023-05-08T20:26:57.950Z,101941.44
2023-05-08T20:29:25.329Z,101938.78
2023-05-08T20:31:52.980Z,101939.66
2023-05-08T20:34:21.928Z,101946.72
2023-05-08T20:36:49.375Z,101936.13
2023-05-08T20:39:16.614Z,101945.84
2023-05-08T20:41:43.796Z,101945.84
2023-05-08T20:44:12.534Z,101953.75
2023-05-08T20:46:43.582Z,101958.16
2023-05-08T20:49:10.727Z,101959.94
2023-05-08T20:51:37.909Z,101952.00
2023-05-08T20:54:05.154Z,101947.59
2023-05-08T20:56:32.403Z,101948.50
2023-05-08T20:58:59.632Z,101945.84
2023-05-08T21:01:26.828Z,101944.97
2023-05-08T21:03:53.931Z,101944.09
2023-05-08T21:06:21.049Z,101940.56
2023-05-08T21:08:48.366Z,101943.22
2023-05-08T21:11:16.544Z,101930.88
2023-05-08T21:13:49.232Z,101925.56
2023-05-08T21:16:19.461Z,101931.75
2023-05-08T21:18:46.572Z,101928.25
2023-05-08T21:21:20.218Z,101929.13
2023-05-08T21:23:47.347Z,101925.59
2023-05-08T21:26:16.819Z,101932.66
2023-05-08T21:28:43.913Z,101931.75
2023-05-08T21:31:11.041Z,101927.38
2023-05-08T21:33:38.181Z,101925.59
2023-05-08T21:36:05.664Z,101930.88
2023-05-08T21:38:32.901Z,101931.78
2023-05-08T21:41:07.606Z,101932.66
2023-05-08T21:43:36.345Z,101925.59
2023-05-08T21:46:05.707Z,101925.63
2023-05-08T21:48:33.792Z,101927.34
2023-05-08T21:51:01.397Z,101923.84
2023-05-08T21:53:29.696Z,101932.63
2023-05-08T21:55:56.741Z,101927.34
2023-05-08T21:58:23.826Z,101930.88
2023-05-08T22:00:51.217Z,101929.13
2023-05-08T22:03:19.373Z,101934.41
2023-05-08T22:05:46.944Z,101922.09
2023-05-08T22:08:14.162Z,101930.00
2023-05-08T22:10:44.377Z,101934.41
2023-05-08T22:13:12.741Z,101930.00
2023-05-08T22:15:39.959Z,101930.00
2023-05-08T22:18:07.173Z,101924.72
2023-05-08T22:20:34.384Z,101925.59
2023-05-08T22:23:01.388Z,101920.28
2023-05-08T22:25:28.634Z,101917.69
2023-05-08T22:27:55.883Z,101921.22
2023-05-08T22:30:23.031Z,101920.31
2023-05-08T22:32:56.516Z,101922.91
2023-05-08T22:35:25.252Z,101924.72
2023-05-08T22:37:53.159Z,101924.72
2023-05-08T22:40:21.494Z,101926.47
2023-05-08T22:42:54.280Z,101926.47
2023-05-08T22:45:22.766Z,101922.91
2023-05-08T22:47:49.818Z,101924.66
2023-05-08T22:50:17.466Z,101923.78
2023-05-08T22:52:44.775Z,101924.66
2023-05-08T22:55:12.218Z,101924.69
2023-05-08T22:57:39.485Z,101921.16
2023-05-08T23:00:09.542Z,101928.22
2023-05-08T23:02:36.606Z,101926.44
2023-05-08T23:05:04.040Z,101930.88
2023-05-08T23:07:31.277Z,101931.75
2023-05-08T23:09:58.311Z,101930.00
2023-05-08T23:12:25.567Z,101933.47
2023-05-08T23:14:52.751Z,101929.97
2023-05-08T23:17:19.881Z,101928.19
2023-05-08T23:19:46.921Z,101921.16
2023-05-08T23:22:14.043Z,101907.09
2023-05-08T23:24:41.198Z,101904.44
2023-05-08T23:27:08.237Z,101896.50
2023-05-08T23:29:38.025Z,101905.31
2023-05-08T23:32:05.158Z,101905.31
2023-05-08T23:34:32.189Z,101900.03
2023-05-08T23:37:00.336Z,101900.94
2023-05-08T23:39:27.484Z,101893.84
2023-05-08T23:41:54.661Z,101894.75
2023-05-08T23:44:21.796Z,101886.84
2023-05-08T23:46:49.014Z,101885.94
2023-05-08T23:49:16.108Z,101885.94
2023-05-08T23:51:43.187Z,101878.03
2023-05-08T23:54:10.177Z,101875.38
2023-05-08T23:56:37.310Z,101882.44
2023-05-08T23:59:04.404Z,101876.28
